createdAt,value
2022-09-24T00:01:35.178Z,100916.53
2022-09-24T00:04:07.297Z,100915.69
2022-09-24T00:06:42.185Z,100913.88
2022-09-24T00:09:12.300Z,100925.28
2022-09-24T00:11:44.329Z,100923.28
2022-09-24T00:14:12.377Z,100928.66
2022-09-24T00:16:41.546Z,100920.75
2022-09-24T00:19:10.521Z,100918.94
2022-09-24T00:21:39.355Z,100915.94
2022-09-24T00:24:33.445Z,100910.56
2022-09-24T00:27:03.218Z,100914.41
2022-09-24T00:29:36.533Z,100915.97
2022-09-24T00:32:09.440Z,100913.78
2022-09-24T00:34:37.905Z,100909.06
2022-09-24T00:37:06.729Z,100912.63
2022-09-24T00:39:36.788Z,100913.59
2022-09-24T00:42:07.819Z,100916.28
2022-09-24T00:44:43.787Z,100916.66
2022-09-24T00:47:41.128Z,100910.91
2022-09-24T00:50:23.276Z,100909.41
2022-09-24T00:53:06.320Z,100905.38
2022-09-24T00:55:41.521Z,100911.28
2022-09-24T00:58:10.746Z,100897.50
2022-09-24T01:00:40.209Z,100898.88
2022-09-24T01:03:17.887Z,100903.19
2022-09-24T01:05:46.234Z,100896.16
2022-09-24T01:08:16.105Z,100892.78
2022-09-24T01:11:07.759Z,100888.97
2022-09-24T01:14:04.318Z,100879.72
2022-09-24T01:17:02.871Z,100882.91
2022-09-24T01:19:47.119Z,100883.09
2022-09-24T01:22:36.222Z,100879.88
2022-09-24T01:25:24.888Z,100875.38
2022-09-24T01:28:00.543Z,100871.50
2022-09-24T01:30:34.263Z,100877.72
2022-09-24T01:33:05.553Z,100873.38
2022-09-24T01:35:40.746Z,100879.06
2022-09-24T01:38:21.269Z,100865.50
2022-09-24T01:43:35.114Z,100869.31
2022-09-24T01:46:07.225Z,100875.22
2022-09-24T01:48:43.313Z,100878.75
2022-09-24T01:51:19.191Z,100866.31
2022-09-24T01:53:56.984Z,100865.16
2022-09-24T01:56:32.405Z,100868.84
2022-09-24T01:59:29.892Z,100864.31
2022-09-24T02:02:14.040Z,100871.34
2022-09-24T02:04:48.226Z,100868.31
2022-09-24T02:07:28.024Z,100866.78
2022-09-24T02:09:56.718Z,100870.50
2022-09-24T02:12:38.325Z,100870.00
2022-09-24T02:15:47.907Z,100868.00
2022-09-24T02:18:20.616Z,100867.16
2022-09-24T02:20:52.915Z,100881.03
2022-09-24T02:23:21.988Z,100870.00
2022-09-24T02:26:05.095Z,100880.22
2022-09-24T02:28:34.334Z,100876.69
2022-09-24T02:31:10.148Z,100876.72
2022-09-24T02:34:15.536Z,100879.88
2022-09-24T02:36:45.947Z,100880.22
2022-09-24T02:39:14.926Z,100885.56
2022-09-24T02:41:49.587Z,100895.09
2022-09-24T02:44:18.803Z,100893.75
2022-09-24T02:46:47.413Z,100895.56
2022-09-24T02:49:18.027Z,100904.28
2022-09-24T02:51:47.794Z,100894.22
2022-09-24T02:54:16.275Z,100899.41
2022-09-24T02:56:44.552Z,100903.88
2022-09-24T02:59:12.985Z,100909.44
2022-09-24T03:01:42.110Z,100905.44
2022-09-24T03:04:10.143Z,100910.09
2022-09-24T03:06:38.443Z,100910.81
2022-09-24T03:09:07.179Z,100909.97
2022-09-24T03:11:47.578Z,100909.59
2022-09-24T03:14:17.818Z,100918.31
2022-09-24T03:16:48.632Z,100918.94
2022-09-24T03:19:19.297Z,100925.31
2022-09-24T03:21:47.724Z,100927.88
2022-09-24T03:24:16.285Z,100925.22
2022-09-24T03:26:44.556Z,100915.44
2022-09-24T03:29:13.032Z,100915.44
2022-09-24T03:31:42.244Z,100916.63
2022-09-24T03:34:11.833Z,100917.09
2022-09-24T03:36:43.808Z,100916.44
2022-09-24T03:39:13.120Z,100920.81
2022-09-24T03:41:46.168Z,100923.88
2022-09-24T03:44:14.779Z,100926.84
2022-09-24T03:46:45.077Z,100935.56
2022-09-24T03:49:13.459Z,100931.19
2022-09-24T03:51:42.122Z,100928.19
2022-09-24T03:54:13.404Z,100934.72
2022-09-24T03:56:44.891Z,100939.22
2022-09-24T03:59:13.177Z,100930.19
2022-09-24T04:01:51.389Z,100937.28
2022-09-24T04:04:24.888Z,100931.63
2022-09-24T04:06:54.012Z,100934.94
2022-09-24T04:09:22.861Z,100930.41
2022-09-24T04:11:54.879Z,100934.63
2022-09-24T04:14:22.702Z,100935.31
2022-09-24T04:16:52.214Z,100941.72
2022-09-24T04:19:21.663Z,100940.03
2022-09-24T04:21:50.215Z,100937.72
2022-09-24T04:24:19.747Z,100944.44
2022-09-24T04:26:50.258Z,100945.28
2022-09-24T04:32:09.876Z,100935.06
2022-09-24T04:34:50.222Z,100929.03
2022-09-24T04:40:18.217Z,100944.09
2022-09-24T04:43:03.603Z,100939.75
2022-09-24T04:45:38.657Z,100941.09
2022-09-24T04:48:08.303Z,100933.22
2022-09-24T04:50:45.506Z,100939.75
2022-09-24T04:53:17.405Z,100947.81
2022-09-24T04:55:54.688Z,100943.28
2022-09-24T04:58:27.366Z,100953.84
2022-09-24T05:01:13.952Z,100940.44
2022-09-24T05:04:04.409Z,100946.81
2022-09-24T05:06:36.794Z,100947.97
2022-09-24T05:18:06.756Z,100953.03
2022-09-24T05:20:39.404Z,100962.28
2022-09-24T05:23:24.009Z,100959.75
2022-09-24T05:32:10.932Z,100967.28
2022-09-24T05:34:41.522Z,100973.81
2022-09-24T05:39:58.154Z,100962.69
2022-09-24T05:42:34.350Z,100962.19
2022-09-24T05:45:20.764Z,100960.47
2022-09-24T05:47:51.322Z,100959.94
2022-09-24T05:50:58.121Z,100955.53
2022-09-24T05:53:26.649Z,100950.94
2022-09-24T05:56:19.652Z,100955.78
2022-09-24T05:58:57.398Z,100958.25
2022-09-24T06:01:26.342Z,100952.22
2022-09-24T06:03:57.996Z,100962.88
2022-09-24T06:06:26.925Z,100959.84
2022-09-24T06:08:59.483Z,100964.78
2022-09-24T06:11:39.752Z,100961.03
2022-09-24T06:14:10.249Z,100961.25
2022-09-24T06:16:39.339Z,100962.53
2022-09-24T06:19:07.861Z,100963.25
2022-09-24T06:21:39.976Z,100957.78
2022-09-24T06:24:07.986Z,100959.69
2022-09-24T06:26:37.364Z,100960.72
2022-09-24T06:29:06.509Z,100960.13
2022-09-24T06:31:40.817Z,100955.13
2022-09-24T06:34:11.221Z,100962.38
2022-09-24T06:36:40.943Z,100967.03
2022-09-24T06:39:09.884Z,100964.50
2022-09-24T06:41:39.395Z,100965.16
2022-09-24T06:44:07.305Z,100962.91
2022-09-24T06:46:39.886Z,100968.81
2022-09-24T06:49:25.798Z,100956.41
2022-09-24T07:06:25.447Z,100965.91
2022-09-24T07:08:56.913Z,100970.06
2022-09-24T07:11:28.066Z,100968.25
2022-09-24T07:13:56.153Z,100964.38
2022-09-24T07:16:24.242Z,100962.69
2022-09-24T07:18:54.039Z,100971.88
2022-09-24T07:21:25.805Z,100972.91
2022-09-24T07:23:58.562Z,100966.66
2022-09-24T07:26:31.783Z,100965.44
2022-09-24T07:31:42.122Z,100970.59
2022-09-24T07:34:10.298Z,100973.97
2022-09-24T07:36:39.022Z,100973.41
2022-09-24T07:39:17.207Z,100970.84
2022-09-24T07:41:44.758Z,100971.97
2022-09-24T07:44:12.501Z,100971.34
2022-09-24T07:46:40.118Z,100975.47
2022-09-24T07:49:07.795Z,100973.06
2022-09-24T07:51:36.976Z,100974.22
2022-09-24T07:54:06.153Z,100968.03
2022-09-24T07:56:34.187Z,100971.75
2022-09-24T07:59:02.151Z,100969.69
2022-09-24T08:01:31.390Z,100969.78
2022-09-24T08:04:00.156Z,100970.59
2022-09-24T08:06:29.003Z,100968.53
2022-09-24T08:08:57.504Z,100970.66
2022-09-24T08:11:25.464Z,100971.56
2022-09-24T08:13:53.093Z,100964.69
2022-09-24T08:16:22.045Z,100964.88
2022-09-24T08:18:50.337Z,100966.69
2022-09-24T08:21:18.065Z,100960.38
2022-09-24T08:23:46.259Z,100964.16
2022-09-24T08:26:14.681Z,100965.84
2022-09-24T08:28:45.631Z,100964.47
2022-09-24T08:31:23.175Z,100966.06
2022-09-24T08:33:59.643Z,100969.56
2022-09-24T08:36:30.026Z,100966.97
2022-09-24T08:38:57.791Z,100964.78
2022-09-24T08:41:50.920Z,100964.66
2022-09-24T08:44:55.471Z,100959.72
2022-09-24T08:47:46.667Z,100959.41
2022-09-24T08:50:27.881Z,100962.75
2022-09-24T08:53:12.729Z,100960.69
2022-09-24T08:55:46.719Z,100975.78
2022-09-24T08:58:19.311Z,100967.38
2022-09-24T09:00:59.424Z,100963.56
2022-09-24T09:03:35.570Z,100954.84
2022-09-24T09:06:13.328Z,100964.34
2022-09-24T09:09:12.101Z,100965.25
2022-09-24T09:11:44.687Z,100951.88
2022-09-24T09:14:29.249Z,100952.53
2022-09-24T09:17:03.399Z,100960.84
2022-09-24T09:19:35.427Z,100957.81
2022-09-24T09:22:17.964Z,100956.78
2022-09-24T09:24:54.080Z,100953.22
2022-09-24T09:27:24.591Z,100959.97
2022-09-24T09:29:58.050Z,100947.81
2022-09-24T09:36:06.777Z,100953.75
2022-09-24T09:39:03.427Z,100953.47
2022-09-24T09:41:48.091Z,100943.88
2022-09-24T09:44:27.139Z,100944.72
2022-09-24T09:47:12.085Z,100955.28
2022-09-24T09:49:41.954Z,100952.97
2022-09-24T09:52:16.113Z,100949.41
2022-09-24T09:54:48.997Z,100943.47
2022-09-24T09:57:26.666Z,100941.78
2022-09-24T09:59:57.128Z,100943.75
2022-09-24T10:02:33.890Z,100942.56
2022-09-24T10:05:04.338Z,100939.25
2022-09-24T10:07:44.259Z,100926.78
2022-09-24T10:10:20.403Z,100933.44
2022-09-24T10:12:48.476Z,100928.09
2022-09-24T10:15:26.804Z,100932.69
2022-09-24T10:18:01.838Z,100930.19
2022-09-24T10:20:35.260Z,100938.97
2022-09-24T10:26:20.691Z,100929.38
2022-09-24T10:29:11.267Z,100927.00
2022-09-24T10:31:42.559Z,100923.13
2022-09-24T10:34:26.933Z,100915.88
2022-09-24T10:37:10.800Z,100908.34
2022-09-24T10:39:49.762Z,100908.16
2022-09-24T10:42:32.965Z,100905.22
2022-09-24T10:51:46.226Z,100912.31
2022-09-24T10:54:55.524Z,100909.41
2022-09-24T10:58:30.299Z,100915.41
2022-09-24T11:01:32.321Z,100911.47
2022-09-24T11:04:22.001Z,100910.19
2022-09-24T11:07:11.911Z,100907.38
2022-09-24T11:09:52.350Z,100903.00
2022-09-24T11:12:31.061Z,100905.63
2022-09-24T11:19:27.008Z,100905.22
2022-09-24T11:22:17.907Z,100902.44
2022-09-24T11:25:09.847Z,100899.78
2022-09-24T11:28:20.114Z,100900.13
2022-09-24T11:31:11.105Z,100901.44
2022-09-24T11:34:02.799Z,100894.34
2022-09-24T11:36:40.330Z,100896.78
2022-09-24T11:39:22.653Z,100899.19
2022-09-24T11:42:09.728Z,100900.03
2022-09-24T11:44:58.106Z,100900.66
2022-09-24T11:47:55.165Z,100895.66
2022-09-24T11:50:48.149Z,100899.84
2022-09-24T11:53:37.783Z,100889.81
2022-09-24T11:56:46.492Z,100895.84
2022-09-24T11:59:36.897Z,100903.53
2022-09-24T12:02:14.113Z,100899.34
2022-09-24T12:08:06.996Z,100902.75
2022-09-24T12:10:47.589Z,100896.25
2022-09-24T12:13:25.570Z,100904.75
2022-09-24T12:16:00.235Z,100905.78
2022-09-24T12:18:33.922Z,100900.59
2022-09-24T12:21:09.052Z,100914.06
2022-09-24T12:23:49.326Z,100940.38
2022-09-24T12:26:23.768Z,100943.94
2022-09-24T12:29:26.426Z,100962.38
2022-09-24T12:32:37.584Z,100949.25
2022-09-24T12:35:25.069Z,100963.47
2022-09-24T12:38:01.188Z,100969.00
2022-09-24T12:41:20.193Z,100980.78
2022-09-24T12:44:08.091Z,100991.94
2022-09-24T12:46:40.717Z,100990.16
2022-09-24T12:49:17.408Z,100993.78
2022-09-24T12:51:46.581Z,100999.75
2022-09-24T12:54:37.536Z,100990.31
2022-09-24T12:57:25.928Z,100998.78
2022-09-24T13:00:04.616Z,100989.03
2022-09-24T13:02:48.622Z,100994.63
2022-09-24T13:05:23.649Z,100990.72
2022-09-24T13:08:13.310Z,100997.03
2022-09-24T13:10:56.565Z,100999.06
2022-09-24T13:13:29.460Z,100992.47
2022-09-24T13:16:18.613Z,100993.00
2022-09-24T13:18:59.453Z,100994.81
2022-09-24T13:21:30.569Z,100999.88
2022-09-24T13:23:59.550Z,100996.56
2022-09-24T13:26:31.472Z,100999.09
2022-09-24T13:29:25.415Z,100996.44
2022-09-24T13:32:01.367Z,100997.09
2022-09-24T13:34:32.535Z,100988.56
2022-09-24T13:37:25.897Z,100994.47
2022-09-24T13:40:04.918Z,100996.13
2022-09-24T13:45:46.708Z,100990.94
2022-09-24T13:48:43.354Z,100989.91
2022-09-24T13:51:20.388Z,100996.81
2022-09-24T13:54:01.832Z,100997.63
2022-09-24T13:56:32.931Z,100991.84
2022-09-24T13:59:08.697Z,100996.78
2022-09-24T14:01:59.641Z,100999.63
2022-09-24T14:04:29.744Z,101003.88
2022-09-24T14:12:46.170Z,100998.50
2022-09-24T14:18:50.744Z,100999.72
2022-09-24T14:21:32.925Z,101002.84
2022-09-24T14:27:03.357Z,100999.00
2022-09-24T14:30:01.849Z,101003.38
2022-09-24T14:32:35.847Z,101005.72
2022-09-24T14:35:08.132Z,101000.91
2022-09-24T14:37:40.468Z,101007.47
2022-09-24T14:40:15.168Z,100995.22
2022-09-24T14:42:44.947Z,101005.06
2022-09-24T14:45:35.005Z,101008.16
2022-09-24T14:48:05.296Z,101009.56
2022-09-24T14:50:39.755Z,101003.00
2022-09-24T14:53:23.177Z,101010.09
2022-09-24T15:13:42.598Z,101032.31
2022-09-24T15:16:29.093Z,101025.50
2022-09-24T15:18:59.260Z,101030.38
2022-09-24T15:21:28.113Z,101032.78
2022-09-24T15:23:56.446Z,101035.38
2022-09-24T15:26:29.738Z,101033.16
2022-09-24T15:28:59.155Z,101034.78
2022-09-24T15:31:27.767Z,101030.75
2022-09-24T15:33:56.290Z,101033.16
2022-09-24T15:36:25.131Z,101033.50
2022-09-24T15:39:00.885Z,101042.25
2022-09-24T15:41:28.600Z,101039.03
2022-09-24T15:43:58.527Z,101048.97
2022-09-24T15:46:26.911Z,101056.28
2022-09-24T15:48:54.652Z,101059.88
2022-09-24T15:51:23.629Z,101058.94
2022-09-24T15:53:51.670Z,101070.66
2022-09-24T15:56:19.854Z,101074.00
2022-09-24T15:58:48.936Z,101071.50
2022-09-24T16:01:19.631Z,101068.31
2022-09-24T16:03:47.418Z,101070.28
2022-09-24T16:06:16.167Z,101077.41
2022-09-24T16:08:44.766Z,101076.03
2022-09-24T16:11:13.984Z,101083.78
2022-09-24T16:13:42.354Z,101083.34
2022-09-24T16:16:12.193Z,101092.56
2022-09-24T16:18:41.077Z,101086.81
2022-09-24T16:21:08.856Z,101090.53
2022-09-24T16:23:36.469Z,101091.97
2022-09-24T16:26:04.758Z,101086.09
2022-09-24T16:28:34.109Z,101091.84
2022-09-24T16:31:08.948Z,101096.03
2022-09-24T16:33:40.336Z,101101.13
2022-09-24T16:36:18.896Z,101100.47
2022-09-24T16:38:47.445Z,101104.88
2022-09-24T16:41:15.411Z,101109.91
2022-09-24T16:43:43.201Z,101099.97
2022-09-24T16:46:10.809Z,101097.47
2022-09-24T16:48:38.787Z,101110.16
2022-09-24T16:51:11.653Z,101121.38
2022-09-24T16:53:39.425Z,101123.44
2022-09-24T16:56:11.194Z,101121.22
2022-09-24T16:58:39.917Z,101122.94
2022-09-24T17:01:09.142Z,101123.78
2022-09-24T17:03:37.192Z,101128.16
2022-09-24T17:06:05.422Z,101131.53
2022-09-24T17:08:54.793Z,101132.28
2022-09-24T17:11:23.314Z,101142.88
2022-09-24T17:13:51.760Z,101142.66
2022-09-24T17:16:19.509Z,101127.88
2022-09-24T17:18:47.251Z,101139.38
2022-09-24T17:21:15.345Z,101144.75
2022-09-24T17:23:42.942Z,101150.81
2022-09-24T17:26:15.052Z,101143.75
2022-09-24T17:28:45.779Z,101149.47
2022-09-24T17:31:16.793Z,101148.28
2022-09-24T17:33:45.435Z,101151.50
2022-09-24T17:36:14.374Z,101153.50
2022-09-24T17:38:42.937Z,101158.06
2022-09-24T17:41:12.476Z,101156.88
2022-09-24T17:43:42.071Z,101158.72
2022-09-24T17:46:14.869Z,101154.50
2022-09-24T17:48:44.851Z,101161.75
2022-09-24T17:51:24.268Z,101155.53
2022-09-24T17:53:55.457Z,101157.25
2022-09-24T17:56:26.893Z,101158.94
2022-09-24T17:58:56.234Z,101158.59
2022-09-24T18:01:28.046Z,101165.00
2022-09-24T18:03:58.148Z,101164.69
2022-09-24T18:06:32.557Z,101164.34
2022-09-24T18:09:01.950Z,101159.81
2022-09-24T18:11:38.851Z,101173.75
2022-09-24T18:14:06.574Z,101171.41
2022-09-24T18:16:34.728Z,101171.41
2022-09-24T18:19:03.479Z,101174.97
2022-09-24T18:21:31.743Z,101170.09
2022-09-24T18:24:00.727Z,101169.41
2022-09-24T18:26:35.396Z,101175.81
2022-09-24T18:29:21.642Z,101171.28
2022-09-24T18:31:51.744Z,101168.25
2022-09-24T18:34:19.539Z,101168.94
2022-09-24T18:36:47.912Z,101170.59
2022-09-24T18:39:23.668Z,101161.50
2022-09-24T18:41:54.798Z,101159.34
2022-09-24T18:44:23.522Z,101163.38
2022-09-24T18:46:53.112Z,101169.09
2022-09-24T18:49:21.716Z,101172.13
2022-09-24T18:51:49.452Z,101162.38
2022-09-24T18:54:18.520Z,101164.75
2022-09-24T18:56:46.848Z,101171.47
2022-09-24T18:59:18.333Z,101166.09
2022-09-24T19:01:48.153Z,101174.97
2022-09-24T19:14:23.869Z,101179.19
2022-09-24T19:16:58.672Z,101172.47
2022-09-24T19:26:24.543Z,101192.97
2022-09-24T19:28:53.583Z,101186.56
2022-09-24T20:23:11.187Z,101224.88
2022-09-24T20:32:27.630Z,101223.88
2022-09-24T20:35:12.018Z,101239.66
2022-09-24T20:37:41.234Z,101225.06
2022-09-24T20:40:11.590Z,101235.97
2022-09-24T20:42:41.699Z,101221.34
2022-09-24T21:10:00.816Z,101235.97
2022-09-24T21:18:47.278Z,101234.31
2022-09-24T21:21:29.166Z,101244.22
2022-09-24T22:02:50.089Z,101265.13
2022-09-24T23:36:34.769Z,101298.69
2022-09-24T23:39:13.394Z,101298.44
2022-09-24T23:48:22.022Z,101295.56
